createdAt,value
2017-10-16T17:40:06.902Z,87.9
2017-10-16T17:40:47.405Z,87.9
2017-10-16T17:41:27.963Z,87.81
2017-10-16T17:42:11.618Z,87.71
2017-10-16T17:42:50.394Z,87.81
2017-10-16T17:43:30.950Z,88.19
2017-10-16T17:44:11.542Z,87.71
2017-10-16T17:44:52.082Z,88.29
2017-10-16T17:45:32.602Z,87.9
2017-10-16T17:46:13.187Z,88
2017-10-16T17:46:54.007Z,87.9
2017-10-16T17:47:34.648Z,87.81
2017-10-16T17:48:15.099Z,88.1
2017-10-16T17:48:56.705Z,87.71
2017-10-16T17:49:37.159Z,88.19
2017-10-16T17:50:18.521Z,88.1
2017-10-16T17:51:00.459Z,88.19
2017-10-16T17:51:41.062Z,88.19
2017-10-16T17:52:21.528Z,87.9
2017-10-16T17:53:02.097Z,87.9
2017-10-16T17:53:42.649Z,87.9
2017-10-16T17:54:23.219Z,88
2017-10-16T17:55:03.775Z,88.39
2017-10-16T17:55:44.309Z,88.19
2017-10-16T17:56:24.979Z,88.29
2017-10-16T17:57:05.631Z,87.9
2017-10-16T17:57:46.213Z,87.81
2017-10-16T17:58:26.791Z,87.33
2017-10-16T17:59:07.251Z,88
2017-10-16T17:59:47.866Z,87.13
2017-10-16T18:00:28.451Z,88.19
2017-10-16T18:01:09.050Z,87.71
2017-10-16T18:01:49.638Z,88.19
2017-10-16T18:02:30.178Z,87.23
2017-10-16T18:03:11.910Z,87.23
2017-10-16T18:03:52.497Z,87.42
2017-10-16T18:04:33.075Z,87.62
2017-10-16T18:05:13.598Z,87.23
2017-10-16T18:05:54.197Z,86.94
2017-10-16T18:06:34.699Z,87.71
2017-10-16T18:07:15.362Z,87.9
2017-10-16T18:07:55.861Z,87.71
2017-10-16T18:08:36.464Z,87.71
2017-10-16T18:09:17.015Z,88
2017-10-16T18:09:57.521Z,87.81
2017-10-16T18:10:38.104Z,88.1
2017-10-16T18:11:18.663Z,87.52
2017-10-16T18:11:59.162Z,87.81
2017-10-16T18:12:39.757Z,87.71
2017-10-16T18:13:20.301Z,87.62
2017-10-16T18:14:00.850Z,87.62
2017-10-16T18:14:41.346Z,88.57
2017-10-16T18:15:21.883Z,88
2017-10-16T18:16:02.496Z,87.9
2017-10-16T18:16:43.012Z,88.19
2017-10-16T18:17:23.614Z,88.1
2017-10-16T18:18:04.136Z,87.71
2017-10-16T18:18:44.842Z,88.1
2017-10-16T18:19:25.369Z,87.71
2017-10-16T18:20:05.910Z,87.81
2017-10-16T18:20:46.502Z,88.29
2017-10-16T18:21:27.045Z,88.06
2017-10-16T18:22:07.696Z,88.48
2017-10-16T18:22:48.336Z,88.1
2017-10-16T18:23:28.835Z,88.39
2017-10-16T18:24:09.382Z,88.39
2017-10-16T18:24:50.050Z,88.57
2017-10-16T18:25:30.568Z,88.39
2017-10-16T18:26:11.085Z,88.67
2017-10-16T18:26:51.686Z,87.96
2017-10-16T18:27:32.210Z,88.48
2017-10-16T18:28:12.785Z,88.48
2017-10-16T18:28:53.326Z,88.48
2017-10-16T18:29:33.845Z,88.39
2017-10-16T18:30:14.495Z,88.19
2017-10-16T18:30:55.004Z,88.39
2017-10-16T18:31:35.631Z,88.34
2017-10-16T18:32:16.133Z,88.24
2017-10-16T18:32:56.689Z,88.24
2017-10-16T18:33:37.246Z,88.24
2017-10-16T18:34:17.845Z,88.53
2017-10-16T18:34:58.402Z,88.15
2017-10-16T18:35:39.019Z,88.73
2017-10-16T18:36:19.585Z,88.44
2017-10-16T18:37:00.103Z,88.24
2017-10-16T18:37:40.659Z,88.15
2017-10-16T18:38:21.226Z,88.15
2017-10-16T18:39:01.813Z,88.06
2017-10-16T18:39:42.310Z,88.34
2017-10-16T18:40:23.045Z,88.73
2017-10-16T18:41:03.626Z,88.24
2017-10-16T18:41:44.207Z,88.44
2017-10-16T18:42:24.706Z,88.24
2017-10-16T18:43:05.279Z,88.44
2017-10-16T18:43:45.875Z,88.15
2017-10-16T18:44:26.491Z,88.34
2017-10-16T18:45:07.095Z,87.96
2017-10-16T18:45:47.596Z,88.15
2017-10-16T18:46:28.376Z,88.53
2017-10-16T18:47:08.890Z,88.44
2017-10-16T18:47:49.624Z,88.44
2017-10-16T18:48:30.186Z,88.82
2017-10-16T18:49:10.837Z,88.82
2017-10-16T18:49:51.353Z,88.24
2017-10-16T18:50:31.883Z,88.24
2017-10-16T18:51:12.500Z,88.34
2017-10-16T18:51:53.068Z,88.53
2017-10-16T18:52:33.650Z,88.92
2017-10-16T18:53:14.179Z,89.11
2017-10-16T18:53:54.736Z,89.01
2017-10-16T18:54:35.382Z,89.11
2017-10-16T18:55:15.989Z,88.53
2017-10-16T18:55:57.139Z,89.11
2017-10-16T18:56:37.122Z,89.11
2017-10-16T18:57:17.749Z,89.21
2017-10-16T18:57:58.284Z,89.3
2017-10-16T18:58:38.877Z,89.4
2017-10-16T18:59:19.471Z,89.3
2017-10-16T18:59:59.970Z,88.92
2017-10-16T19:00:40.821Z,89.07
2017-10-16T19:01:21.455Z,89.21
2017-10-16T19:02:02.228Z,88.87
2017-10-16T19:02:42.733Z,88.97
2017-10-16T19:03:23.370Z,89.26
2017-10-16T19:04:04.432Z,89.11
2017-10-16T19:04:45.044Z,89.16
2017-10-16T19:05:25.611Z,89.11
2017-10-16T19:06:06.146Z,88.97
2017-10-16T19:06:46.744Z,89.36
2017-10-16T19:07:27.294Z,89.36
2017-10-16T19:08:07.805Z,89.36
2017-10-16T19:08:48.401Z,89.36
2017-10-16T19:09:29.621Z,88.92
2017-10-16T19:10:10.091Z,88.92
2017-10-16T19:10:50.674Z,88.97
2017-10-16T19:11:31.281Z,89.07
2017-10-16T19:12:11.816Z,89.11
2017-10-16T19:12:52.413Z,88.97
2017-10-16T19:13:32.977Z,89.07
2017-10-16T19:14:13.539Z,88.87
2017-10-16T19:14:54.169Z,89.16
2017-10-16T19:15:34.752Z,89.01
2017-10-16T19:16:15.337Z,89.07
2017-10-16T19:16:55.982Z,88.97
2017-10-16T19:17:36.536Z,88.97
2017-10-16T19:18:17.088Z,89.07
2017-10-16T19:18:57.688Z,89.45
2017-10-16T19:19:38.338Z,89.45
2017-10-16T19:20:19.144Z,89.54
2017-10-16T19:20:59.748Z,89.64
2017-10-16T19:21:40.413Z,89.54
2017-10-16T19:22:21.029Z,89.64
2017-10-16T19:23:01.591Z,89.45
2017-10-16T19:23:42.171Z,89.54
2017-10-16T19:24:22.681Z,89.45
2017-10-16T19:25:03.250Z,89.64
2017-10-16T19:25:43.859Z,89.74
2017-10-16T19:26:24.475Z,89.45
2017-10-16T19:27:05.100Z,89.36
2017-10-16T19:27:45.619Z,89.54
2017-10-16T19:28:26.195Z,89.54
2017-10-16T19:29:06.842Z,89.69
2017-10-16T19:29:47.407Z,89.64
2017-10-16T19:30:27.963Z,89.36
2017-10-16T19:31:08.575Z,89.54
2017-10-16T19:31:49.116Z,89.69
2017-10-16T19:32:29.705Z,89.64
2017-10-16T19:33:11.791Z,89.45
2017-10-16T19:33:52.719Z,89.54
2017-10-16T19:34:33.257Z,89.45
2017-10-16T19:35:13.775Z,89.83
2017-10-16T19:35:54.359Z,89.45
2017-10-16T19:36:35.338Z,89.45
2017-10-16T19:37:20.035Z,89.36
2017-10-16T19:38:00.779Z,89.83
2017-10-16T19:38:41.327Z,89.26
2017-10-16T19:39:22.019Z,89.93
2017-10-16T19:40:02.646Z,90.03
2017-10-16T19:40:43.285Z,89.74
2017-10-16T19:41:23.974Z,89.93
2017-10-16T19:42:08.856Z,89.93
2017-10-16T19:42:49.361Z,89.45
2017-10-16T19:43:29.908Z,90.22
2017-10-16T19:44:10.493Z,89.83
2017-10-16T19:44:51.030Z,89.93
2017-10-16T19:45:31.764Z,90.12
2017-10-16T19:46:12.215Z,90.12
2017-10-16T19:46:52.853Z,90.03
2017-10-16T19:47:33.390Z,90.03
2017-10-16T19:48:13.999Z,89.64
2017-10-16T19:48:54.589Z,89.74
2017-10-16T19:49:35.136Z,89.93
2017-10-16T19:50:15.766Z,89.83
2017-10-16T19:50:56.316Z,90.12
2017-10-16T19:51:36.873Z,90.03
2017-10-16T19:52:17.498Z,89.45
2017-10-16T19:52:58.075Z,89.83
2017-10-16T19:53:38.738Z,89.64
2017-10-16T19:54:19.332Z,89.45
2017-10-16T19:54:59.870Z,89.83
2017-10-16T19:55:40.482Z,89.45
2017-10-16T19:56:21.061Z,90.22
2017-10-16T19:57:01.615Z,89.93
2017-10-16T19:57:42.871Z,90.03
2017-10-16T19:58:23.455Z,90.22
2017-10-16T19:59:04.067Z,90.03
2017-10-16T19:59:44.662Z,90.03
2017-10-16T20:00:25.188Z,89.74
2017-10-16T20:01:09.021Z,89.74
2017-10-16T20:01:49.312Z,89.93
2017-10-16T20:02:29.925Z,90.03
2017-10-16T20:03:10.421Z,90.03
2017-10-16T20:03:50.993Z,90.03
2017-10-16T20:04:31.554Z,89.93
2017-10-16T20:05:12.107Z,89.93
2017-10-16T20:05:52.750Z,90.03
2017-10-16T20:06:33.241Z,90.6
2017-10-16T20:07:13.825Z,89.74
2017-10-16T20:07:54.395Z,90.31
2017-10-16T20:08:34.939Z,90.41
2017-10-16T20:09:15.553Z,89.93
2017-10-16T20:09:56.094Z,90.41
2017-10-16T20:10:37.232Z,89.93
2017-10-16T20:11:17.735Z,90.12
2017-10-16T20:11:58.300Z,90.12
2017-10-16T20:12:38.921Z,90.22
2017-10-16T20:13:19.528Z,90.22
2017-10-16T20:14:00.082Z,89.93
2017-10-16T20:14:40.672Z,90.12
2017-10-16T20:15:21.256Z,90.41
2017-10-16T20:16:01.756Z,90.31
2017-10-16T20:16:42.357Z,90.12
2017-10-16T20:17:22.884Z,90.37
2017-10-16T20:18:03.487Z,90.12
2017-10-16T20:18:44.569Z,90.12
2017-10-16T20:19:25.319Z,89.79
2017-10-16T20:20:05.978Z,90.08
2017-10-16T20:20:46.494Z,89.83
2017-10-16T20:21:27.045Z,90.22
2017-10-16T20:22:07.665Z,90.37
2017-10-16T20:22:48.210Z,89.98
2017-10-16T20:23:28.812Z,90.56
2017-10-16T20:24:10.140Z,90.66
2017-10-16T20:24:50.673Z,90.56
2017-10-16T20:25:31.179Z,90.17
2017-10-16T20:26:11.739Z,90.37
2017-10-16T20:26:52.303Z,90.75
2017-10-16T20:27:32.865Z,90.94
2017-10-16T20:28:13.430Z,90.56
2017-10-16T20:28:54.079Z,90.75
2017-10-16T20:29:34.604Z,90.66
2017-10-16T20:30:15.156Z,90.75
2017-10-16T20:30:55.707Z,90.46
2017-10-16T20:31:36.365Z,90.84
2017-10-16T20:32:16.853Z,90.56
2017-10-16T20:32:57.442Z,90.37
2017-10-16T20:33:38.148Z,90.56
2017-10-16T20:34:18.751Z,90.84
2017-10-16T20:34:59.330Z,90.56
2017-10-16T20:35:39.846Z,90.17
2017-10-16T20:36:21.206Z,90.56
2017-10-16T20:37:01.047Z,90.84
2017-10-16T20:37:41.607Z,90.84
2017-10-16T20:38:22.204Z,90.46
2017-10-16T20:39:02.751Z,90.56
2017-10-16T20:39:43.317Z,90.84
2017-10-16T20:40:23.942Z,90.56
2017-10-16T20:41:04.525Z,90.37
2017-10-16T20:41:45.114Z,90.37
2017-10-16T20:42:25.639Z,90.56
2017-10-16T20:43:06.215Z,90.84
2017-10-16T20:43:46.737Z,90.46
2017-10-16T20:44:27.296Z,90.17
2017-10-16T20:45:07.911Z,90.46
2017-10-16T20:45:48.484Z,90.84
2017-10-16T20:46:29.079Z,90.17
2017-10-16T20:47:09.607Z,90.37
2017-10-16T20:47:50.091Z,90.37
2017-10-16T20:48:30.710Z,90.56
2017-10-16T20:49:11.225Z,90.37
2017-10-16T20:49:51.768Z,90.46
2017-10-16T20:50:32.346Z,90.75
2017-10-16T20:51:12.965Z,90.27
2017-10-16T20:51:53.496Z,90.84
2017-10-16T20:52:34.135Z,90.75
2017-10-16T20:53:14.632Z,90.56
2017-10-16T20:53:55.206Z,90.84
2017-10-16T20:54:35.761Z,90.75
2017-10-16T20:55:16.370Z,90.56
2017-10-16T20:55:57.021Z,90.56
2017-10-16T20:56:37.514Z,90.66
2017-10-16T20:57:18.098Z,90.46
2017-10-16T20:57:58.724Z,90.66
2017-10-16T20:58:39.222Z,90.66
2017-10-16T20:59:19.804Z,90.75
2017-10-16T21:00:00.322Z,90.94
2017-10-16T21:00:40.936Z,90.84
2017-10-16T21:01:21.515Z,90.75
2017-10-16T21:02:02.084Z,90.56
2017-10-16T21:02:42.649Z,90.66
2017-10-16T21:03:23.812Z,90.56
2017-10-16T21:04:04.475Z,91.13
2017-10-16T21:04:45.310Z,90.75
2017-10-16T21:05:25.958Z,91.04
2017-10-16T21:06:06.512Z,91.13
2017-10-16T21:06:47.449Z,90.37
2017-10-16T21:07:28.887Z,91.13
2017-10-16T21:08:10.641Z,91.23
2017-10-16T21:08:51.205Z,90.66
2017-10-16T21:09:31.738Z,91.23
2017-10-16T21:10:13.697Z,91.13
2017-10-16T21:10:53.632Z,90.75
2017-10-16T21:11:34.233Z,90.94
2017-10-16T21:12:14.717Z,91.04
2017-10-16T21:12:55.219Z,91.04
2017-10-16T21:13:35.825Z,91.04
2017-10-16T21:14:16.455Z,91.13
2017-10-16T21:14:56.939Z,91.04
2017-10-16T21:15:37.592Z,90.37
2017-10-16T21:16:18.157Z,90.46
2017-10-16T21:16:58.918Z,90.66
2017-10-16T21:17:40.291Z,90.94
2017-10-16T21:18:20.831Z,90.94
2017-10-16T21:19:01.783Z,90.94
2017-10-16T21:19:58.147Z,91.13
2017-10-16T21:20:38.743Z,90.94
2017-10-16T21:21:19.789Z,90.99
2017-10-16T21:22:00.904Z,91.09
2017-10-16T21:22:41.546Z,91.04
2017-10-16T21:23:21.951Z,90.94
2017-10-16T21:24:02.558Z,91.23
2017-10-16T21:24:43.089Z,91.42
2017-10-16T21:25:23.646Z,90.99
2017-10-16T21:26:04.241Z,91.09
2017-10-16T21:26:44.856Z,91.04
2017-10-16T21:27:25.472Z,91.13
2017-10-16T21:28:06.030Z,90.94
2017-10-16T21:28:46.600Z,91.04
2017-10-16T21:29:27.245Z,90.84
2017-10-16T21:30:07.774Z,91.33
2017-10-16T21:30:48.452Z,91.23
2017-10-16T21:31:28.965Z,90.37
2017-10-16T21:32:09.571Z,90.37
2017-10-16T21:32:50.789Z,90.66
2017-10-16T21:33:31.552Z,90.61
2017-10-16T21:34:12.100Z,91.04
2017-10-16T21:34:52.784Z,90.7
2017-10-16T21:35:33.472Z,90.66
2017-10-16T21:36:14.076Z,90.66
2017-10-16T21:36:54.631Z,90.56
2017-10-16T21:37:35.232Z,90.56
2017-10-16T21:38:15.761Z,90.7
2017-10-16T21:38:56.337Z,90.7
2017-10-16T21:39:36.938Z,90.7
2017-10-16T21:40:17.522Z,90.7
2017-10-16T21:40:58.038Z,90.61
2017-10-16T21:41:38.694Z,90.32
2017-10-16T21:42:19.187Z,90.7
2017-10-16T21:42:59.806Z,90.9
2017-10-16T21:43:40.306Z,90.61
2017-10-16T21:44:20.829Z,90.32
2017-10-16T21:45:01.425Z,90.42
2017-10-16T21:45:41.975Z,90.61
2017-10-16T21:46:22.541Z,90.7
2017-10-16T21:47:03.114Z,90.61
2017-10-16T21:47:43.688Z,90.61
2017-10-16T21:48:24.374Z,90.99
2017-10-16T21:49:04.942Z,90.8
2017-10-16T21:49:45.505Z,90.99
2017-10-16T21:50:26.174Z,90.52
2017-10-16T21:51:06.641Z,91.19
2017-10-16T21:51:47.349Z,90.99
2017-10-16T21:52:27.867Z,91.28
2017-10-16T21:53:08.401Z,90.61
2017-10-16T21:53:48.973Z,90.99
2017-10-16T21:54:29.555Z,90.8
2017-10-16T21:55:10.076Z,90.8
2017-10-16T21:55:50.681Z,90.9
2017-10-16T21:56:31.330Z,90.99
2017-10-16T21:57:11.850Z,90.99
2017-10-16T21:57:52.411Z,90.9
2017-10-16T21:58:32.974Z,90.99
2017-10-16T21:59:13.513Z,90.9
2017-10-16T21:59:54.131Z,90.99
2017-10-16T22:00:34.646Z,90.7
2017-10-16T22:01:15.313Z,91.28
2017-10-16T22:01:55.844Z,91.28
2017-10-16T22:02:36.466Z,91.28
2017-10-16T22:03:16.992Z,91.28
2017-10-16T22:03:57.512Z,91.19
2017-10-16T22:04:38.049Z,91.47
2017-10-16T22:05:18.638Z,91.42
2017-10-16T22:05:59.184Z,91.42
2017-10-16T22:06:39.798Z,91.28
2017-10-16T22:07:20.449Z,91.28
2017-10-16T22:08:01.159Z,91.19
2017-10-16T22:08:41.786Z,91.14
2017-10-16T22:09:22.399Z,91.47
2017-10-16T22:10:03.126Z,91.19
2017-10-16T22:10:43.692Z,91.14
2017-10-16T22:11:24.260Z,91.72
2017-10-16T22:12:04.954Z,91.62
2017-10-16T22:12:45.573Z,91.33
2017-10-16T22:13:26.121Z,91.57
2017-10-16T22:14:06.651Z,90.61
2017-10-16T22:14:47.249Z,90.66
2017-10-16T22:15:27.799Z,90.95
2017-10-16T22:16:08.346Z,91.19
2017-10-16T22:16:48.900Z,91.05
2017-10-16T22:17:29.492Z,91.19
2017-10-16T22:18:10.054Z,91.33
2017-10-16T22:18:50.684Z,91.24
2017-10-16T22:19:31.189Z,90.99
2017-10-16T22:20:12.018Z,91.14
2017-10-16T22:20:52.572Z,90.95
2017-10-16T22:21:33.251Z,90.99
2017-10-16T22:22:13.827Z,90.56
2017-10-16T22:22:54.392Z,90.95
2017-10-16T22:23:34.993Z,91.09
2017-10-16T22:24:15.611Z,91.05
2017-10-16T22:24:56.202Z,90.52
2017-10-16T22:25:36.700Z,90.9
2017-10-16T22:26:17.329Z,90.9
2017-10-16T22:26:57.820Z,90.47
2017-10-16T22:27:38.449Z,91.05
2017-10-16T22:28:19.049Z,90.28
2017-10-16T22:28:59.577Z,90.28
2017-10-16T22:29:40.143Z,90.66
2017-10-16T22:30:26.873Z,90.56
2017-10-16T22:31:07.878Z,90.37
2017-10-16T22:31:48.427Z,90.75
2017-10-16T22:32:29.103Z,90.66
2017-10-16T22:33:09.702Z,90.47
2017-10-16T22:33:50.202Z,90.85
2017-10-16T22:34:30.818Z,90.66
2017-10-16T22:35:11.354Z,90.75
2017-10-16T22:35:51.889Z,90.18
2017-10-16T22:36:33.244Z,90.56
2017-10-16T22:37:13.007Z,90.47
2017-10-16T22:37:53.766Z,90.56
2017-10-16T22:38:34.294Z,90.56
2017-10-16T22:39:14.901Z,90.47
2017-10-16T22:39:55.469Z,90.56
2017-10-16T22:40:36.066Z,90.18
2017-10-16T22:41:16.654Z,90.47
2017-10-16T22:41:57.209Z,90.56
2017-10-16T22:42:37.733Z,90.66
2017-10-16T22:43:18.272Z,90.56
2017-10-16T22:43:58.859Z,90.56
2017-10-16T22:44:39.428Z,90.66
2017-10-16T22:45:19.925Z,90.56
2017-10-16T22:46:00.507Z,90.75
2017-10-16T22:46:41.055Z,90.75
2017-10-16T22:47:21.634Z,90.56
2017-10-16T22:48:02.220Z,90.37
2017-10-16T22:48:42.737Z,91.05
2017-10-16T22:49:23.319Z,90.85
2017-10-16T22:50:03.896Z,91.05
2017-10-16T22:50:44.443Z,90.47
2017-10-16T22:51:24.983Z,90.95
2017-10-16T22:52:05.852Z,90.75
2017-10-16T22:52:46.405Z,90.66
2017-10-16T22:53:27.053Z,90.66
2017-10-16T22:54:07.580Z,90.75
2017-10-16T22:54:48.128Z,90.85
2017-10-16T22:55:28.725Z,90.47
2017-10-16T22:56:09.282Z,90.47
2017-10-16T22:56:49.809Z,90.37
2017-10-16T22:57:30.315Z,90.66
2017-10-16T22:58:10.955Z,90.95
2017-10-16T22:58:51.409Z,90.66
2017-10-16T22:59:32.043Z,90.66
2017-10-16T23:00:12.667Z,90.47
2017-10-16T23:00:53.265Z,90.47
2017-10-16T23:01:34.239Z,90.56
2017-10-16T23:02:14.824Z,90.75
2017-10-16T23:02:55.319Z,90.28
2017-10-16T23:03:35.862Z,90.85
2017-10-16T23:04:16.633Z,90.28
2017-10-16T23:04:57.220Z,91.24
2017-10-16T23:05:37.744Z,90.37
2017-10-16T23:06:18.455Z,90.66
2017-10-16T23:06:59.036Z,90.47
2017-10-16T23:07:39.622Z,90.47
2017-10-16T23:08:20.130Z,90.56
2017-10-16T23:09:00.744Z,90.66
2017-10-16T23:09:41.307Z,90.56
2017-10-16T23:10:22.526Z,90.56
2017-10-16T23:11:03.251Z,90.47
2017-10-16T23:11:43.882Z,90.66
2017-10-16T23:12:24.414Z,90.56
2017-10-16T23:13:06.231Z,90.85
2017-10-16T23:13:46.827Z,90.56
2017-10-16T23:14:27.380Z,90.37
2017-10-16T23:15:07.996Z,90.56
2017-10-16T23:15:48.656Z,90.56
2017-10-16T23:16:29.203Z,90.37
2017-10-16T23:17:09.826Z,90.47
2017-10-16T23:17:50.360Z,91.05
2017-10-16T23:18:30.904Z,90.85
2017-10-16T23:19:11.457Z,90.85
2017-10-16T23:19:52.048Z,90.56
2017-10-16T23:20:32.559Z,90.56
2017-10-16T23:21:13.265Z,90.56
2017-10-16T23:21:53.795Z,90.47
2017-10-16T23:22:34.364Z,90.28
2017-10-16T23:23:15.477Z,90.28
2017-10-16T23:23:55.968Z,90.56
2017-10-16T23:24:36.570Z,90.47
2017-10-16T23:25:17.085Z,90.37
2017-10-16T23:25:58.438Z,90.28
2017-10-16T23:26:39.061Z,90.56
2017-10-16T23:27:19.572Z,90.75
2017-10-16T23:28:00.134Z,90.66
2017-10-16T23:28:40.912Z,90.47
2017-10-16T23:29:21.500Z,90.42
2017-10-16T23:30:01.982Z,90.14
2017-10-16T23:30:42.570Z,90.42
2017-10-16T23:31:23.110Z,90.52
2017-10-16T23:32:03.691Z,90.66
2017-10-16T23:32:44.226Z,90.47
2017-10-16T23:33:24.773Z,90.37
2017-10-16T23:34:05.333Z,90.14
2017-10-16T23:34:45.865Z,90.42
2017-10-16T23:35:26.493Z,90.52
2017-10-16T23:36:06.965Z,90.66
2017-10-16T23:36:47.532Z,90.61
2017-10-16T23:37:28.073Z,90.61
2017-10-16T23:38:08.622Z,90.42
2017-10-16T23:38:49.265Z,90.23
2017-10-16T23:39:29.826Z,90.23
2017-10-16T23:40:10.373Z,90.52
2017-10-16T23:40:50.941Z,89.65
2017-10-16T23:41:31.430Z,89.75
2017-10-16T23:42:12.007Z,90.47
2017-10-16T23:42:52.597Z,90.04
2017-10-16T23:43:33.111Z,90.42
2017-10-16T23:44:13.653Z,90.23
2017-10-16T23:44:54.259Z,90.61
2017-10-16T23:45:34.812Z,90.52
2017-10-16T23:46:15.425Z,90.23
2017-10-16T23:46:55.945Z,90.61
2017-10-16T23:47:36.475Z,91
2017-10-16T23:48:17.023Z,90.9
2017-10-16T23:48:57.569Z,90.42
2017-10-16T23:49:38.112Z,90.61
2017-10-16T23:50:18.689Z,90.61
2017-10-16T23:50:59.354Z,90.52
2017-10-16T23:51:39.929Z,90.61
2017-10-16T23:52:20.501Z,90.71
2017-10-16T23:53:01.043Z,90.52
2017-10-16T23:53:41.608Z,90.52
2017-10-16T23:54:22.180Z,90.33
2017-10-16T23:55:02.710Z,90.71
2017-10-16T23:55:43.258Z,90.52
2017-10-16T23:56:23.876Z,90.23
2017-10-16T23:57:04.353Z,90.71
2017-10-16T23:57:45.047Z,90.42
2017-10-16T23:58:25.583Z,90.23
2017-10-16T23:59:06.141Z,90.28
2017-10-16T23:59:46.672Z,89.85
